createdAt,value
2022-12-08T00:05:05.900Z,90835.84
2022-12-08T00:10:39.648Z,90933.31
2022-12-08T00:15:35.210Z,90856.59
2022-12-08T00:20:38.690Z,90972.72
2022-12-08T00:25:42.215Z,90813.03
2022-12-08T00:30:47.246Z,91022.50
2022-12-08T00:35:50.855Z,91059.81
2022-12-08T00:40:54.324Z,91088.84
2022-12-08T00:45:59.191Z,91097.16
2022-12-08T00:51:02.766Z,91410.34
2022-12-08T00:56:06.677Z,91329.44
2022-12-08T01:01:12.866Z,91290.03
2022-12-08T01:06:16.387Z,91541.00
2022-12-08T01:11:20.931Z,91470.50
2022-12-08T01:16:27.412Z,90910.50
2022-12-08T01:21:31.034Z,90864.88
2022-12-08T01:26:34.518Z,90825.47
2022-12-08T01:31:40.612Z,91043.22
2022-12-08T01:36:44.515Z,91198.78
2022-12-08T01:41:48.672Z,91238.19
2022-12-08T01:46:55.381Z,91514.03
2022-12-08T01:52:04.241Z,91549.31
2022-12-08T01:57:12.277Z,91675.84
2022-12-08T02:02:17.286Z,91661.31
2022-12-08T02:07:22.910Z,91692.44
2022-12-08T02:12:26.500Z,91877.06
2022-12-08T02:17:42.635Z,91901.94
2022-12-08T02:22:53.154Z,92009.81
2022-12-08T02:28:04.813Z,92254.59
2022-12-08T02:33:51.308Z,92501.50
2022-12-08T02:39:04.035Z,92403.97
2022-12-08T02:44:12.328Z,92491.13
2022-12-08T02:49:17.197Z,92856.28
2022-12-08T02:54:20.772Z,92872.88
2022-12-08T02:59:39.932Z,92901.94
2022-12-08T03:04:47.996Z,92926.81
2022-12-08T03:09:56.063Z,93005.69
2022-12-08T03:15:07.477Z,93067.94
2022-12-08T03:20:17.539Z,93020.19
2022-12-08T03:25:24.194Z,93165.44
2022-12-08T03:30:31.710Z,93335.59
2022-12-08T03:35:40.665Z,93229.78
2022-12-08T03:41:05.547Z,93595.00
2022-12-08T03:46:09.035Z,93578.41
2022-12-08T03:51:14.386Z,93524.44
2022-12-08T03:56:25.100Z,93740.28
2022-12-08T04:01:28.712Z,93455.97
2022-12-08T04:06:34.031Z,93698.78
2022-12-08T04:11:37.541Z,93773.50
2022-12-08T04:16:41.151Z,93750.66
2022-12-08T04:21:45.981Z,93850.28
2022-12-08T04:26:49.801Z,93727.81
2022-12-08T04:31:53.389Z,93742.34
2022-12-08T04:36:58.294Z,93744.44
2022-12-08T04:42:01.914Z,93854.44
2022-12-08T04:47:05.533Z,94165.75
2022-12-08T04:52:10.486Z,94176.13
2022-12-08T04:57:14.015Z,94001.78
2022-12-08T05:02:17.517Z,94155.38
2022-12-08T05:07:22.428Z,93960.28
2022-12-08T05:12:26.171Z,94066.13
2022-12-08T05:17:29.674Z,94317.28
2022-12-08T05:22:34.695Z,94354.63
2022-12-08T05:27:38.640Z,94365.00
2022-12-08T05:32:42.165Z,94520.69
2022-12-08T05:37:47.003Z,94340.09
2022-12-08T05:42:50.509Z,94377.47
2022-12-08T05:47:54.426Z,94398.22
2022-12-08T05:52:59.291Z,94134.63
2022-12-08T05:58:07.707Z,94045.38
2022-12-08T06:03:12.864Z,93669.72
2022-12-08T06:08:18.297Z,93767.25
2022-12-08T06:13:22.020Z,93727.81
2022-12-08T06:18:31.161Z,93744.44
2022-12-08T06:23:38.214Z,93327.31
2022-12-08T06:28:42.816Z,93287.88
2022-12-08T06:33:46.807Z,93412.38
2022-12-08T06:38:51.906Z,93568.03
2022-12-08T06:43:57.242Z,93478.78
2022-12-08T06:49:00.698Z,93269.19
2022-12-08T06:54:05.655Z,93387.50
2022-12-08T06:59:09.189Z,93128.09
2022-12-08T07:04:12.778Z,93057.56
2022-12-08T07:09:17.675Z,92968.31
2022-12-08T07:14:24.762Z,92810.63
2022-12-08T07:19:28.249Z,92625.97
2022-12-08T07:24:33.467Z,92542.97
2022-12-08T07:29:36.949Z,92408.13
2022-12-08T07:34:40.407Z,92453.78
2022-12-08T07:39:45.462Z,92486.97
2022-12-08T07:44:48.942Z,92484.88
2022-12-08T07:49:52.526Z,92464.16
2022-12-08T07:54:57.381Z,92271.19
2022-12-08T08:00:00.889Z,92138.44
2022-12-08T08:05:05.031Z,91889.50
2022-12-08T08:10:12.360Z,91935.13
2022-12-08T08:15:16.061Z,91632.28
2022-12-08T08:20:22.065Z,91638.50
2022-12-08T08:25:26.968Z,91833.50
2022-12-08T08:30:30.387Z,91458.03
2022-12-08T08:35:34.548Z,91188.41
2022-12-08T08:40:40.880Z,91229.91
2022-12-08T08:45:46.684Z,91132.41
2022-12-08T08:50:50.783Z,91117.91
2022-12-08T08:55:55.824Z,91252.72
2022-12-08T09:01:00.850Z,91317.00
2022-12-08T09:06:04.601Z,91217.44
2022-12-08T09:11:10.192Z,91165.59
2022-12-08T09:16:13.819Z,91290.03
2022-12-08T09:21:22.511Z,91273.44
2022-12-08T09:26:29.832Z,91370.94
2022-12-08T09:31:33.415Z,91422.78
2022-12-08T09:36:37.066Z,91279.66
2022-12-08T09:41:48.521Z,91165.59
2022-12-08T09:46:54.235Z,91271.38
2022-12-08T09:51:58.653Z,91076.41
2022-12-08T09:57:12.338Z,91157.31
2022-12-08T10:02:22.946Z,91238.19
2022-12-08T10:07:38.075Z,90904.28
2022-12-08T10:12:48.833Z,91005.91
2022-12-08T10:17:55.624Z,90848.28
2022-12-08T10:23:09.643Z,90835.84
2022-12-08T10:28:14.545Z,90875.25
2022-12-08T10:33:20.549Z,90790.22
2022-12-08T10:38:28.331Z,90709.34
2022-12-08T10:43:34.672Z,90645.06
2022-12-08T10:48:38.269Z,90848.28
2022-12-08T10:53:47.234Z,91088.84
2022-12-08T10:59:06.948Z,91283.81
2022-12-08T11:04:16.677Z,90906.34
2022-12-08T11:09:27.314Z,90976.88
2022-12-08T11:14:39.169Z,90910.50
2022-12-08T11:19:44.801Z,91003.81
2022-12-08T11:24:58.373Z,91294.19
2022-12-08T11:30:09.685Z,91319.06
2022-12-08T11:35:23.955Z,91010.06
2022-12-08T11:40:32.957Z,91184.25
2022-12-08T11:45:37.888Z,91155.22
2022-12-08T11:50:46.882Z,91030.78
2022-12-08T11:55:56.079Z,90696.91
2022-12-08T12:01:01.965Z,90709.34
2022-12-08T12:06:53.725Z,90491.59
2022-12-08T12:12:16.708Z,90408.66
2022-12-08T12:17:36.387Z,90159.81
2022-12-08T12:22:40.248Z,90126.66
2022-12-08T12:27:46.623Z,90004.31
2022-12-08T12:32:55.811Z,89975.28
2022-12-08T12:38:03.222Z,89707.81
2022-12-08T12:43:25.266Z,89546.13
2022-12-08T12:48:30.270Z,89566.84
2022-12-08T12:53:52.156Z,89668.44
2022-12-08T12:58:55.737Z,89649.78
2022-12-08T13:04:08.384Z,89384.41
2022-12-08T13:09:30.727Z,88920.06
2022-12-08T13:14:37.280Z,88685.81
2022-12-08T13:19:48.829Z,88660.97
2022-12-08T13:25:15.033Z,88669.25
2022-12-08T13:30:43.601Z,88130.38
2022-12-08T13:35:57.888Z,88221.56
2022-12-08T13:41:04.738Z,88055.75
2022-12-08T13:46:57.981Z,88117.94
2022-12-08T13:57:14.289Z,87703.47
2022-12-08T14:02:27.228Z,87436.16
2022-12-08T14:07:33.774Z,87436.16
2022-12-08T14:12:38.686Z,87318.03
2022-12-08T14:17:42.915Z,87255.88
2022-12-08T14:22:50.485Z,87214.44
2022-12-08T14:28:01.024Z,87214.44
2022-12-08T14:33:06.169Z,86733.78
2022-12-08T14:38:15.398Z,86628.13
2022-12-08T14:43:21.359Z,86652.97
2022-12-08T14:48:27.529Z,86615.69
2022-12-08T14:53:39.942Z,86632.25
2022-12-08T14:58:43.871Z,86646.75
2022-12-08T15:03:51.518Z,86781.44
2022-12-08T15:08:59.867Z,86833.22
2022-12-08T15:14:03.951Z,87040.41
2022-12-08T15:19:19.081Z,86864.28
2022-12-08T15:24:26.426Z,86965.81
2022-12-08T15:29:31.407Z,87048.69
2022-12-08T15:34:37.406Z,87090.13
2022-12-08T15:39:42.294Z,86860.16
2022-12-08T15:44:46.451Z,86769.00
2022-12-08T15:49:51.294Z,86868.44
2022-12-08T15:54:56.409Z,86746.19
2022-12-08T16:00:00.313Z,86717.19
2022-12-08T16:05:41.563Z,86462.38
2022-12-08T16:10:45.465Z,86406.44
2022-12-08T16:16:00.345Z,86445.81
2022-12-08T16:21:31.590Z,86280.09
2022-12-08T16:27:42.614Z,86282.16
2022-12-08T16:31:54.222Z,86420.94
2022-12-08T16:36:58.174Z,86524.53
2022-12-08T16:42:20.592Z,86594.97
2022-12-08T16:47:24.377Z,86516.25
2022-12-08T16:52:28.432Z,86408.53
2022-12-08T16:57:33.660Z,86329.81
2022-12-08T17:02:37.571Z,86379.53
2022-12-08T17:07:41.392Z,86168.22
2022-12-08T17:12:47.298Z,86010.81
2022-12-08T17:17:51.290Z,86207.59
2022-12-08T17:22:55.689Z,86499.66
2022-12-08T17:28:00.701Z,86715.13
2022-12-08T17:33:04.567Z,86675.75
2022-12-08T17:38:08.135Z,86928.53
2022-12-08T17:43:14.680Z,87202.00
2022-12-08T17:48:18.526Z,87473.44
2022-12-08T17:53:23.395Z,87639.22
2022-12-08T17:58:28.350Z,87815.38
2022-12-08T18:03:32.092Z,87995.66
2022-12-08T18:08:36.402Z,88314.81
2022-12-08T18:13:41.909Z,88540.75
2022-12-08T18:18:45.731Z,88600.84
2022-12-08T18:23:49.527Z,88654.75
2022-12-08T18:28:54.647Z,88992.59
2022-12-08T18:33:58.542Z,89183.31
2022-12-08T18:39:05.846Z,89299.41
2022-12-08T18:44:15.901Z,89649.78
2022-12-08T18:49:21.357Z,89716.13
2022-12-08T18:54:37.106Z,89942.09
2022-12-08T18:59:50.223Z,89948.34
2022-12-08T19:04:56.913Z,89985.66
2022-12-08T19:10:00.777Z,89919.31
2022-12-08T19:15:06.511Z,89937.97
2022-12-08T19:20:11.196Z,90101.75
2022-12-08T19:25:14.966Z,90253.13
2022-12-08T19:30:20.060Z,89921.38
2022-12-08T19:35:23.536Z,89956.63
2022-12-08T19:40:45.021Z,90010.53
2022-12-08T19:45:50.013Z,89811.50
2022-12-08T19:50:53.781Z,89886.13
2022-12-08T19:55:57.683Z,89587.56
2022-12-08T20:01:02.936Z,89475.63
2022-12-08T20:06:07.092Z,89301.47
2022-12-08T20:11:10.962Z,89233.06
2022-12-08T20:16:17.242Z,89228.94
2022-12-08T20:21:22.203Z,89156.38
2022-12-08T20:26:26.286Z,88971.88
2022-12-08T20:31:33.590Z,88826.78
2022-12-08T20:36:37.458Z,88692.03
2022-12-08T20:41:41.145Z,88561.47
2022-12-08T20:46:49.470Z,88833.00
2022-12-08T20:51:53.451Z,88824.72
2022-12-08T20:56:57.050Z,88687.91
2022-12-08T21:02:02.221Z,88824.72
2022-12-08T21:07:05.878Z,88704.47
2022-12-08T21:12:09.669Z,88671.31
2022-12-08T21:17:15.026Z,88704.47
2022-12-08T21:22:18.742Z,88517.94
2022-12-08T21:27:22.501Z,88526.22
2022-12-08T21:32:30.614Z,88470.28
2022-12-08T21:37:35.159Z,88420.53
2022-12-08T21:42:47.678Z,88250.56
2022-12-08T21:47:53.018Z,87865.09
2022-12-08T21:52:57.106Z,87943.84
2022-12-08T21:58:02.193Z,87641.31
2022-12-08T22:03:08.315Z,87487.97
2022-12-08T22:08:12.250Z,87141.94
2022-12-08T22:13:16.174Z,87241.38
2022-12-08T22:18:21.503Z,87038.34
2022-12-08T22:23:25.732Z,86951.31
2022-12-08T22:28:32.377Z,86748.28
2022-12-08T22:33:37.950Z,86454.09
2022-12-08T22:38:41.628Z,86118.50
2022-12-08T22:43:45.933Z,86110.22
2022-12-08T22:48:51.479Z,85807.81
2022-12-08T22:53:55.049Z,85807.81
2022-12-08T22:58:59.867Z,85712.53
2022-12-08T23:04:05.179Z,85352.16
2022-12-08T23:09:08.930Z,84946.25
2022-12-08T23:14:12.940Z,84666.72
2022-12-08T23:19:17.898Z,84654.28
2022-12-08T23:24:21.389Z,84654.28
2022-12-08T23:29:25.154Z,84813.72
2022-12-08T23:34:30.243Z,84666.72
2022-12-08T23:39:33.798Z,84484.50
2022-12-08T23:44:37.631Z,84047.63
2022-12-08T23:49:42.546Z,84039.34
2022-12-08T23:54:46.129Z,83890.28
2022-12-08T23:59:49.655Z,83768.13
